createdAt,value
2019-01-16T00:02:06.474Z,9.53
2019-01-16T00:04:51.431Z,10.70
2019-01-16T00:07:28.386Z,10.47
2019-01-16T00:10:05.403Z,10.20
2019-01-16T00:12:36.204Z,9.73
2019-01-16T00:15:07.420Z,10.73
2019-01-16T00:17:35.430Z,11.67
2019-01-16T00:20:06.187Z,11.10
2019-01-16T00:22:36.995Z,9.47
2019-01-16T00:25:05.785Z,11.97
2019-01-16T00:27:33.784Z,12.73
2019-01-16T00:30:04.831Z,10.17
2019-01-16T00:32:35.586Z,11.90
2019-01-16T00:35:20.786Z,9.70
2019-01-16T00:37:54.548Z,9.20
2019-01-16T00:40:31.699Z,11.77
2019-01-16T00:43:02.686Z,9.03
2019-01-16T00:45:33.432Z,11.33
2019-01-16T00:48:24.414Z,11.37
2019-01-16T00:50:50.819Z,10.70
2019-01-16T00:53:18.870Z,11.60
2019-01-16T00:55:52.684Z,11.90
2019-01-16T00:58:20.691Z,14.27
2019-01-16T01:00:51.878Z,11.93
2019-01-16T01:03:28.834Z,11.83
2019-01-16T01:06:11.791Z,13.33
2019-01-16T01:08:39.828Z,14.23
2019-01-16T01:11:13.867Z,16.03
2019-01-16T01:13:41.904Z,11.17
2019-01-16T01:16:12.831Z,12.17
2019-01-16T01:18:50.050Z,16.30
2019-01-16T01:21:23.852Z,12.73
2019-01-16T01:24:08.671Z,13.67
2019-01-16T01:26:48.707Z,13.63
2019-01-16T01:29:22.758Z,13.67
2019-01-16T01:32:03.290Z,10.80
2019-01-16T01:34:31.295Z,12.63
2019-01-16T01:37:05.259Z,11.73
2019-01-16T01:39:35.782Z,12.67
2019-01-16T01:42:20.292Z,12.77
2019-01-16T01:44:51.171Z,15.80
2019-01-16T01:47:24.949Z,9.23
2019-01-16T01:49:52.962Z,12.70
2019-01-16T01:52:20.986Z,10.27
2019-01-16T01:54:58.047Z,11.83
2019-01-16T01:57:35.112Z,13.93
2019-01-16T02:00:03.123Z,11.00
2019-01-16T02:02:31.110Z,11.57
2019-01-16T02:04:59.135Z,12.53
2019-01-16T02:07:33.126Z,12.10
2019-01-16T02:10:17.670Z,12.27
2019-01-16T02:12:48.415Z,11.87
2019-01-16T02:15:28.398Z,9.43
2019-01-16T02:17:56.382Z,12.03
2019-01-16T02:20:27.166Z,12.33
2019-01-16T02:23:11.780Z,12.97
2019-01-16T02:25:56.267Z,13.17
2019-01-16T02:28:42.321Z,11.20
2019-01-16T02:31:10.361Z,10.30
2019-01-16T02:33:54.835Z,8.13
2019-01-16T02:36:31.806Z,11.40
2019-01-16T02:39:08.791Z,12.30
2019-01-16T02:41:36.796Z,11.73
2019-01-16T02:44:10.542Z,12.03
2019-01-16T02:46:50.739Z,10.00
2019-01-16T02:49:27.677Z,11.20
2019-01-16T02:52:12.247Z,10.87
2019-01-16T02:54:46.031Z,9.90
2019-01-16T02:57:16.883Z,9.27
2019-01-16T02:59:44.892Z,6.40
2019-01-16T03:02:12.888Z,8.97
2019-01-16T03:04:43.623Z,8.40
2019-01-16T03:07:17.692Z,12.03
2019-01-16T03:09:54.548Z,8.07
2019-01-16T03:12:25.359Z,8.27
2019-01-16T03:14:55.901Z,10.53
2019-01-16T03:17:23.934Z,8.73
2019-01-16T03:19:58.366Z,9.67
2019-01-16T03:22:44.503Z,8.67
2019-01-16T03:25:21.163Z,7.83
2019-01-16T03:27:58.039Z,8.93
2019-01-16T03:30:26.052Z,7.73
2019-01-16T03:32:56.931Z,6.50
2019-01-16T03:35:40.249Z,10.97
2019-01-16T03:38:26.606Z,9.37
2019-01-16T03:41:00.851Z,8.57
2019-01-16T03:43:34.719Z,8.33
2019-01-16T03:46:05.724Z,8.60
2019-01-16T03:48:33.764Z,9.67
2019-01-16T03:51:18.568Z,7.37
2019-01-16T03:53:46.564Z,8.60
2019-01-16T03:56:31.247Z,7.20
2019-01-16T03:59:14.346Z,7.43
2019-01-16T04:01:51.420Z,9.07
2019-01-16T04:04:22.183Z,8.00
2019-01-16T04:07:08.447Z,8.23
2019-01-16T04:09:53.090Z,8.20
2019-01-16T04:12:37.671Z,8.73
2019-01-16T04:15:13.147Z,9.67
2019-01-16T04:17:53.129Z,10.27
2019-01-16T04:20:29.745Z,10.77
2019-01-16T04:22:57.749Z,8.40
2019-01-16T04:25:31.890Z,6.97
2019-01-16T04:28:16.442Z,7.63
2019-01-16T04:31:01.001Z,8.10
2019-01-16T04:33:34.871Z,7.47
2019-01-16T04:36:02.866Z,8.63
2019-01-16T04:38:42.899Z,9.33
2019-01-16T04:41:29.153Z,6.67
2019-01-16T04:44:12.410Z,7.87
2019-01-16T04:46:40.418Z,7.00
2019-01-16T04:49:20.472Z,8.40
2019-01-16T04:52:05.431Z,9.90
2019-01-16T04:54:45.386Z,8.27
2019-01-16T04:57:30.007Z,10.27
2019-01-16T05:00:00.788Z,6.97
2019-01-16T05:02:34.763Z,7.23
2019-01-16T05:05:17.851Z,8.27
2019-01-16T05:07:54.638Z,8.10
2019-01-16T05:10:22.635Z,6.10
2019-01-16T05:12:50.652Z,7.73
2019-01-16T05:15:18.672Z,5.57
2019-01-16T05:18:04.924Z,8.93
2019-01-16T05:20:36.017Z,7.23
2019-01-16T05:23:06.934Z,7.53
2019-01-16T05:25:34.923Z,7.60
2019-01-16T05:28:21.573Z,5.53
2019-01-16T05:30:52.504Z,6.57
2019-01-16T05:33:23.300Z,7.70
2019-01-16T05:35:54.079Z,7.53
2019-01-16T05:38:25.160Z,7.33
2019-01-16T05:40:53.188Z,7.00
2019-01-16T05:43:24.094Z,6.80
2019-01-16T05:46:01.338Z,6.43
2019-01-16T05:48:44.668Z,8.30
2019-01-16T05:51:19.147Z,5.90
2019-01-16T05:53:53.276Z,4.30
2019-01-16T05:56:36.543Z,4.70
2019-01-16T05:59:04.552Z,5.57
2019-01-16T06:01:32.559Z,6.57
2019-01-16T06:04:06.611Z,5.37
2019-01-16T06:06:52.873Z,8.90
2019-01-16T06:09:32.891Z,5.77
2019-01-16T06:12:19.330Z,6.03
2019-01-16T06:14:50.353Z,4.63
2019-01-16T06:17:18.354Z,5.07
2019-01-16T06:19:53.988Z,11.50
2019-01-16T06:22:36.105Z,5.83
2019-01-16T06:25:12.454Z,7.00
2019-01-16T06:27:58.499Z,4.63
2019-01-16T06:30:35.718Z,6.17
2019-01-16T06:33:12.774Z,4.73
2019-01-16T06:35:40.791Z,4.70
2019-01-16T06:38:08.899Z,4.50
2019-01-16T06:40:36.905Z,4.60
2019-01-16T06:43:20.207Z,6.43
2019-01-16T06:46:03.134Z,6.43
2019-01-16T06:48:34.186Z,4.17
2019-01-16T06:51:05.327Z,3.77
2019-01-16T06:53:48.629Z,5.13
2019-01-16T06:56:19.508Z,3.83
2019-01-16T06:58:53.650Z,6.23
2019-01-16T07:01:39.687Z,8.37
2019-01-16T07:04:19.518Z,5.03
2019-01-16T07:06:47.532Z,3.70
2019-01-16T07:09:32.234Z,4.00
2019-01-16T07:12:00.234Z,4.93
2019-01-16T07:14:37.459Z,4.40
2019-01-16T07:17:05.936Z,4.80
2019-01-16T07:19:46.163Z,5.07
2019-01-16T07:22:20.036Z,4.43
2019-01-16T07:24:53.845Z,4.20
2019-01-16T07:27:27.939Z,4.53
2019-01-16T07:30:01.983Z,6.53
2019-01-16T07:32:47.168Z,3.00
2019-01-16T07:35:24.178Z,4.67
2019-01-16T07:37:58.365Z,3.33
2019-01-16T07:40:26.397Z,3.40
2019-01-16T07:43:12.588Z,3.57
2019-01-16T07:45:57.078Z,8.20
2019-01-16T07:48:41.662Z,2.87
2019-01-16T07:51:15.616Z,4.87
2019-01-16T07:53:49.731Z,4.60
2019-01-16T07:56:33.021Z,5.37
2019-01-16T07:59:04.286Z,4.93
2019-01-16T08:01:49.021Z,5.40
2019-01-16T08:04:33.668Z,5.73
2019-01-16T08:07:01.667Z,5.13
2019-01-16T08:09:41.839Z,7.07
2019-01-16T08:12:28.033Z,6.07
2019-01-16T08:15:12.651Z,5.83
2019-01-16T08:17:59.105Z,5.67
2019-01-16T08:20:29.866Z,6.73
2019-01-16T08:22:57.892Z,7.13
2019-01-16T08:25:25.966Z,5.47
2019-01-16T08:27:56.831Z,9.13
2019-01-16T08:30:41.666Z,13.87
2019-01-16T08:33:09.703Z,7.33
2019-01-16T08:35:38.057Z,12.17
2019-01-16T08:38:24.257Z,8.53
2019-01-16T08:40:55.003Z,11.07
2019-01-16T08:43:23.038Z,9.63
2019-01-16T08:45:51.057Z,12.60
2019-01-16T08:48:21.818Z,12.63
2019-01-16T08:51:05.179Z,13.73
2019-01-16T08:53:33.185Z,13.50
2019-01-16T08:56:04.101Z,12.80
2019-01-16T08:58:48.673Z,11.93
2019-01-16T09:01:33.372Z,14.83
2019-01-16T09:04:01.507Z,12.73
2019-01-16T09:06:35.611Z,12.67
2019-01-16T09:09:06.515Z,14.03
2019-01-16T09:11:51.372Z,17.43
2019-01-16T09:14:22.113Z,11.87
2019-01-16T09:16:52.918Z,16.73
2019-01-16T09:19:26.976Z,13.73
2019-01-16T09:22:10.238Z,13.23
2019-01-16T09:24:54.507Z,12.50
2019-01-16T09:27:25.547Z,12.97
2019-01-16T09:30:10.464Z,12.97
2019-01-16T09:32:41.399Z,14.20
2019-01-16T09:35:09.433Z,19.87
2019-01-16T09:37:37.426Z,11.80
2019-01-16T09:40:14.990Z,13.07
2019-01-16T09:42:54.852Z,12.50
2019-01-16T09:45:25.892Z,10.50
2019-01-16T09:47:53.911Z,11.03
2019-01-16T09:50:34.031Z,23.13
2019-01-16T09:53:11.299Z,9.47
2019-01-16T09:55:56.199Z,8.80
2019-01-16T09:58:30.067Z,10.53
2019-01-16T10:01:14.651Z,8.90
2019-01-16T10:03:48.627Z,11.40
2019-01-16T10:06:16.658Z,11.80
2019-01-16T10:08:44.654Z,10.13
2019-01-16T10:11:12.679Z,14.20
2019-01-16T10:13:55.710Z,9.47
2019-01-16T10:16:40.249Z,8.50
2019-01-16T10:19:17.212Z,9.17
2019-01-16T10:21:57.173Z,11.53
2019-01-16T10:24:25.216Z,10.83
2019-01-16T10:26:56.067Z,11.77
2019-01-16T10:29:30.129Z,9.63
2019-01-16T10:32:10.298Z,12.03
2019-01-16T10:34:44.376Z,13.83
2019-01-16T10:37:21.475Z,8.23
2019-01-16T10:39:52.259Z,8.30
2019-01-16T10:42:20.282Z,9.67
2019-01-16T10:44:54.136Z,13.37
2019-01-16T10:47:37.223Z,4.80
2019-01-16T10:50:20.754Z,9.37
2019-01-16T10:52:48.779Z,10.60
2019-01-16T10:55:34.938Z,8.00
2019-01-16T10:58:08.744Z,8.80
2019-01-16T11:00:53.307Z,10.90
2019-01-16T11:03:33.397Z,9.07
2019-01-16T11:06:04.406Z,7.37
2019-01-16T11:08:48.967Z,8.00
2019-01-16T11:11:17.168Z,9.07
2019-01-16T11:13:54.199Z,8.80
2019-01-16T11:16:25.041Z,7.23
2019-01-16T11:18:59.131Z,9.00
2019-01-16T11:21:36.066Z,9.70
2019-01-16T11:24:20.631Z,9.80
2019-01-16T11:26:54.670Z,7.10
2019-01-16T11:29:39.467Z,13.73
2019-01-16T11:32:16.440Z,9.30
2019-01-16T11:34:59.466Z,7.10
2019-01-16T11:37:36.464Z,10.80
2019-01-16T11:40:08.276Z,7.90
2019-01-16T11:42:45.336Z,10.83
2019-01-16T11:45:16.373Z,18.37
2019-01-16T11:48:01.200Z,19.60
2019-01-16T11:50:29.267Z,14.17
2019-01-16T11:53:12.346Z,17.77
2019-01-16T11:55:52.894Z,11.10
2019-01-16T11:58:20.892Z,8.80
2019-01-16T12:00:51.399Z,12.03
2019-01-16T12:03:37.466Z,9.67
2019-01-16T12:06:11.410Z,16.17
2019-01-16T12:08:42.156Z,13.10
2019-01-16T12:11:13.248Z,11.53
2019-01-16T12:13:58.267Z,11.57
2019-01-16T12:16:29.055Z,10.97
2019-01-16T12:19:08.895Z,11.70
2019-01-16T12:21:39.880Z,13.30
2019-01-16T12:24:07.895Z,12.53
2019-01-16T12:26:35.925Z,11.07
2019-01-16T12:29:07.113Z,14.23
2019-01-16T12:31:41.194Z,13.70
2019-01-16T12:34:25.995Z,18.20
2019-01-16T12:37:06.398Z,10.50
2019-01-16T12:39:52.448Z,15.40
2019-01-16T12:42:23.441Z,9.20
2019-01-16T12:44:51.534Z,10.17
2019-01-16T12:47:25.619Z,10.40
2019-01-16T12:49:53.653Z,10.93
2019-01-16T12:52:24.159Z,11.80
2019-01-16T12:54:58.223Z,10.47
2019-01-16T12:57:42.721Z,14.60
2019-01-16T13:00:23.242Z,11.13
2019-01-16T13:03:00.182Z,11.63
2019-01-16T13:05:30.983Z,11.67
2019-01-16T13:07:59.049Z,12.50
2019-01-16T13:10:36.307Z,11.33
2019-01-16T13:13:22.787Z,16.87
2019-01-16T13:15:56.876Z,14.80
2019-01-16T13:18:24.891Z,8.97
2019-01-16T13:20:55.800Z,11.10
2019-01-16T13:23:33.016Z,9.27
2019-01-16T13:26:17.509Z,10.57
2019-01-16T13:29:03.624Z,7.87
2019-01-16T13:31:31.637Z,11.67
2019-01-16T13:33:59.674Z,18.07
2019-01-16T13:36:27.701Z,8.67
2019-01-16T13:38:58.731Z,12.93
2019-01-16T13:41:45.210Z,14.50
2019-01-16T13:44:16.240Z,12.17
2019-01-16T13:46:59.219Z,10.50
2019-01-16T13:49:36.443Z,14.57
2019-01-16T13:52:04.545Z,12.00
2019-01-16T13:54:35.352Z,14.33
2019-01-16T13:57:06.635Z,10.07
2019-01-16T13:59:46.915Z,10.10
2019-01-16T14:02:18.047Z,15.37
2019-01-16T14:05:01.131Z,10.07
2019-01-16T14:07:41.292Z,8.00
2019-01-16T14:10:27.038Z,13.93
2019-01-16T14:12:55.062Z,12.93
2019-01-16T14:15:39.578Z,16.20
2019-01-16T14:18:10.355Z,16.80
2019-01-16T14:20:55.179Z,12.23
2019-01-16T14:23:23.288Z,12.87
2019-01-16T14:26:07.935Z,9.70
2019-01-16T14:28:35.975Z,15.27
2019-01-16T14:31:20.805Z,11.63
2019-01-16T14:33:57.747Z,8.43
2019-01-16T14:36:42.340Z,10.03
2019-01-16T14:39:19.292Z,13.10
2019-01-16T14:42:02.602Z,10.43
2019-01-16T14:44:47.155Z,15.37
2019-01-16T14:47:27.424Z,11.23
2019-01-16T14:49:55.546Z,13.87
2019-01-16T14:52:26.308Z,12.07
2019-01-16T14:55:06.622Z,12.00
2019-01-16T14:57:43.876Z,10.67
2019-01-16T15:00:30.193Z,10.70
2019-01-16T15:02:58.228Z,11.67
2019-01-16T15:05:29.036Z,10.80
2019-01-16T15:08:00.085Z,9.47
2019-01-16T15:10:28.312Z,11.30
2019-01-16T15:13:05.119Z,11.97
2019-01-16T15:15:51.470Z,10.00
2019-01-16T15:18:22.623Z,8.60
2019-01-16T15:21:00.187Z,13.57
2019-01-16T15:23:37.535Z,8.37
2019-01-16T15:26:08.359Z,8.80
2019-01-16T15:28:45.526Z,11.83
2019-01-16T15:31:22.810Z,7.67
2019-01-16T15:34:08.527Z,9.90
2019-01-16T15:36:36.636Z,13.17
2019-01-16T15:39:14.374Z,10.27
2019-01-16T15:41:42.391Z,10.30
2019-01-16T15:44:28.518Z,12.37
2019-01-16T15:47:05.805Z,9.03
2019-01-16T15:49:50.747Z,12.40
2019-01-16T15:52:21.506Z,13.63
2019-01-16T15:55:06.387Z,13.83
2019-01-16T15:57:34.419Z,8.43
2019-01-16T16:00:08.440Z,13.47
2019-01-16T16:02:46.827Z,10.90
2019-01-16T16:05:21.124Z,8.70
2019-01-16T16:07:49.147Z,11.95
2019-01-16T16:10:33.955Z,10.93
2019-01-16T16:13:16.964Z,9.47
2019-01-16T16:15:44.962Z,11.70
2019-01-16T16:18:15.901Z,16.13
2019-01-16T16:20:55.966Z,11.73
2019-01-16T16:23:24.003Z,35.40
2019-01-16T16:26:10.431Z,21.20
2019-01-16T16:28:41.813Z,15.80
2019-01-16T16:31:15.812Z,8.10
2019-01-16T16:33:49.894Z,7.97
2019-01-16T16:36:34.623Z,7.50
2019-01-16T16:39:02.651Z,9.83
2019-01-16T16:41:30.798Z,16.03
2019-01-16T16:44:14.116Z,15.47
2019-01-16T16:46:58.609Z,20.00
2019-01-16T16:49:26.618Z,27.50
2019-01-16T16:52:03.732Z,24.73
2019-01-16T16:54:40.852Z,15.10
2019-01-16T16:57:08.896Z,13.20
2019-01-16T16:59:52.228Z,9.23
2019-01-16T17:02:23.083Z,7.17
2019-01-16T17:05:07.922Z,8.83
2019-01-16T17:07:38.663Z,12.10
2019-01-16T17:10:15.050Z,7.07
2019-01-16T17:12:43.077Z,12.33
2019-01-16T17:15:12.429Z,12.80
2019-01-16T17:17:49.499Z,7.77
2019-01-16T17:20:20.264Z,10.43
2019-01-16T17:23:00.275Z,10.73
2019-01-16T17:25:37.380Z,9.20
2019-01-16T17:28:17.449Z,10.07
2019-01-16T17:30:45.464Z,9.73
2019-01-16T17:33:19.655Z,10.77
2019-01-16T17:36:03.072Z,9.03
2019-01-16T17:38:46.151Z,11.33
2019-01-16T17:41:23.370Z,8.57
2019-01-16T17:44:08.391Z,15.65
2019-01-16T17:46:52.971Z,13.30
2019-01-16T17:49:23.909Z,17.23
2019-01-16T17:52:00.845Z,18.57
2019-01-16T17:54:45.599Z,10.40
2019-01-16T17:57:19.429Z,17.33
2019-01-16T18:00:04.309Z,17.67
2019-01-16T18:02:41.375Z,13.30
2019-01-16T18:05:09.488Z,14.43
2019-01-16T18:07:37.536Z,13.20
2019-01-16T18:10:09.401Z,11.97
2019-01-16T18:12:40.418Z,11.00
2019-01-16T18:15:24.803Z,10.97
2019-01-16T18:18:09.449Z,11.90
2019-01-16T18:20:40.355Z,12.63
2019-01-16T18:23:25.123Z,12.53
2019-01-16T18:25:55.880Z,14.50
2019-01-16T18:28:32.908Z,16.50
2019-01-16T18:31:00.954Z,19.10
2019-01-16T18:33:32.055Z,15.27
2019-01-16T18:36:08.982Z,15.47
2019-01-16T18:38:53.619Z,15.77
2019-01-16T18:41:21.647Z,15.83
2019-01-16T18:43:52.676Z,20.00
2019-01-16T18:46:44.116Z,15.27
2019-01-16T18:49:20.610Z,31.07
2019-01-16T18:51:59.058Z,24.50
2019-01-16T18:54:34.772Z,22.60
2019-01-16T18:57:13.741Z,17.37
2019-01-16T18:59:51.396Z,14.90
2019-01-16T19:02:29.837Z,14.07
2019-01-16T19:05:00.641Z,18.80
2019-01-16T19:07:46.858Z,15.93
2019-01-16T19:10:17.613Z,19.13
2019-01-16T19:13:03.894Z,12.60
2019-01-16T19:15:37.934Z,12.07
2019-01-16T19:18:12.044Z,15.50
2019-01-16T19:20:58.654Z,12.03
2019-01-16T19:23:26.742Z,8.50
2019-01-16T19:26:11.119Z,11.83
2019-01-16T19:28:50.011Z,12.27
2019-01-16T19:31:27.304Z,12.90
2019-01-16T19:33:55.347Z,16.07
2019-01-16T19:36:23.583Z,13.33
2019-01-16T19:38:51.629Z,13.60
2019-01-16T19:41:26.138Z,13.70
2019-01-16T19:44:03.666Z,11.40
2019-01-16T19:46:35.132Z,11.23
2019-01-16T19:49:19.996Z,10.20
2019-01-16T19:51:53.849Z,12.90
2019-01-16T19:54:40.327Z,16.23
2019-01-16T19:57:14.577Z,10.23
2019-01-16T19:59:42.597Z,12.90
2019-01-16T20:02:16.922Z,15.37
2019-01-16T20:04:57.266Z,15.47
2019-01-16T20:07:43.677Z,17.30
2019-01-16T20:10:18.932Z,18.50
2019-01-16T20:13:02.290Z,13.97
2019-01-16T20:15:33.344Z,10.50
2019-01-16T20:18:01.459Z,14.47
2019-01-16T20:20:32.251Z,12.83
2019-01-16T20:23:11.146Z,12.63
2019-01-16T20:25:56.141Z,12.20
2019-01-16T20:28:26.943Z,15.03
2019-01-16T20:31:03.930Z,18.73
2019-01-16T20:33:31.961Z,11.40
2019-01-16T20:36:03.232Z,14.27
2019-01-16T20:38:47.798Z,13.77
2019-01-16T20:41:21.605Z,12.47
2019-01-16T20:43:55.572Z,11.87
2019-01-16T20:46:23.686Z,9.57
2019-01-16T20:49:03.699Z,15.47
2019-01-16T20:51:44.115Z,10.07
2019-01-16T20:54:14.983Z,8.60
2019-01-16T20:56:58.040Z,8.63
2019-01-16T20:59:38.096Z,13.20
2019-01-16T21:02:06.629Z,8.37
2019-01-16T21:04:47.612Z,14.90
2019-01-16T21:07:15.718Z,13.20
2019-01-16T21:09:43.735Z,12.03
2019-01-16T21:12:24.025Z,14.87
2019-01-16T21:15:10.141Z,19.20
2019-01-16T21:17:49.985Z,12.70
2019-01-16T21:20:20.872Z,12.43
2019-01-16T21:23:06.930Z,15.20
2019-01-16T21:25:40.980Z,9.00
2019-01-16T21:28:20.922Z,12.03
2019-01-16T21:30:58.063Z,11.97
2019-01-16T21:33:29.076Z,12.20
2019-01-16T21:36:00.090Z,17.80
2019-01-16T21:38:28.122Z,15.70
2019-01-16T21:41:12.704Z,12.63
2019-01-16T21:43:57.392Z,13.73
2019-01-16T21:46:25.423Z,12.57
2019-01-16T21:49:02.744Z,12.57
2019-01-16T21:51:33.938Z,10.83
2019-01-16T21:54:01.971Z,11.17
2019-01-16T21:56:46.626Z,10.87
2019-01-16T21:59:14.725Z,10.10
2019-01-16T22:01:51.881Z,12.30
2019-01-16T22:04:28.759Z,13.17
2019-01-16T22:07:14.761Z,11.57
2019-01-16T22:09:59.319Z,11.03
2019-01-16T22:12:45.444Z,13.90
2019-01-16T22:15:22.923Z,10.70
2019-01-16T22:17:51.056Z,13.80
2019-01-16T22:20:21.811Z,16.60
2019-01-16T22:23:04.859Z,13.63
2019-01-16T22:25:35.988Z,18.17
2019-01-16T22:28:06.769Z,11.80
2019-01-16T22:30:40.773Z,18.43
2019-01-16T22:33:20.810Z,16.70
2019-01-16T22:35:54.701Z,13.13
2019-01-16T22:38:22.765Z,13.63
2019-01-16T22:40:56.546Z,16.10
2019-01-16T22:43:41.058Z,12.70
2019-01-16T22:46:27.096Z,13.77
2019-01-16T22:49:07.126Z,15.30
2019-01-16T22:51:38.260Z,15.60
2019-01-16T22:54:12.071Z,18.00
2019-01-16T22:56:56.555Z,12.67
2019-01-16T22:59:24.602Z,9.57
2019-01-16T23:02:01.461Z,16.60
2019-01-16T23:04:38.292Z,15.57
2019-01-16T23:07:22.835Z,20.73
2019-01-16T23:09:53.599Z,14.60
2019-01-16T23:12:33.694Z,16.90
2019-01-16T23:15:07.792Z,18.87
2019-01-16T23:17:35.803Z,18.37
2019-01-16T23:20:20.533Z,16.83
2019-01-16T23:22:51.283Z,17.90
2019-01-16T23:25:35.773Z,14.27
2019-01-16T23:28:03.831Z,16.17
2019-01-16T23:30:37.825Z,15.07
2019-01-16T23:33:05.872Z,17.23
2019-01-16T23:35:51.982Z,14.20
2019-01-16T23:38:36.470Z,15.90
2019-01-16T23:41:07.275Z,15.47
2019-01-16T23:43:47.472Z,20.47
2019-01-16T23:46:18.260Z,14.20
2019-01-16T23:48:58.379Z,18.07
2019-01-16T23:51:42.987Z,13.23
2019-01-16T23:54:19.949Z,11.33
2019-01-16T23:56:48.012Z,12.93
2019-01-16T23:59:28.278Z,12.43
